VNKT METAR

Available data for VNKT from the past hour
KATHMANDU INTL A
TAF
TAF VNKT 202300Z 2100/2124 19003KT 5000 -RA/BR FEW008 SCT025 BKN100 BECMG 2104/2105 17005KT 7000 FEW010 SCT100 BECMG 2107/2109 20008KT 9000 FEW015 SCT025 BKN100 PROB40 2108/2114 VRB12KT 3000 RA/SHRA FEW025CB OVC090 BECMG 2114/2115 VRB02KT 6000 FEW010 SCT025 BKN100

WARNING: the data listed  above is for informational purposes only and should be confirmed from official sources. Data presented here on this page are fetched from Aviation weather data from NOAA’s Aviation Digital Data Service.

How to see the Details of METAR Reading.

Click on the Triangle beside of the Word METAR.(Refer to Fig.1)

VNKTmetar